Darstellungsparameter: Aktuell verwendete Einstellungen:
Skalierung der Graphiken ... ?
xyx+y,   Skalierungsfaktor:      Skalierung: Modus: x, Faktor: 1
Darstellungszeitraum ... ?
Vom - - bis: - -   Zeitraum: 04.09.2020 - 04.09.2020
Min/Max/Avg-Anzeige ... ?
Zeige MMA aktuell
Zeige MMA Monat
Zeige MMA alles
Zeige --A aktuell
Zeige --A Monat
Zeige --A alles
Keine MMA-Anzeige
MMA:
Minimum Maximum Average (ber die Originaldaten)
MMA-Basis: 14.04.2020 - 16.05.2020
Quicknavigation für Darstellung... ?
Tage:      1T, 2T, 3T, 5T -1T -2T -3T -5T +1T +2T +3T +5T
Wochen: 1W, 2W, 3W -1W -2W -3W +1W +2W +3W
Monate: 1M, 3M, 6M -1M -3M -6M +1M +3M +6M
Jahre:    1J, 3J, 5J, 10J -1J -3J -5J -10J +1J +3J +5J +10J
Nutze für die Darstellung ... ?
Originaldaten oder Mittelwerte auf ...
Stundenbasis Tagesbasis Wochenbasis
Monatsbasis Jahresbasis      Datenbasis: Original-Daten
Darstellen als:
Statistik (Auto) Statistik J:M      Darstellung:
Zur Graphik,    zurück zur Übersicht aller Sensoren.
 
Tabellarische Datenbersicht: ?
 
Sensor: Nr:Datum:Temp:Abs-Feuchte:Windchill:Wind:
Aussen-T/F 1 04-09-2020 00:00:00 15.8 C 12.65 g/m*3 15.8 C 0 km/h
2 04-09-2020 00:05:00 15.8 C 12.65 g/m*3 15.8 C 0 km/h
3 04-09-2020 00:10:00 15.8 C 12.65 g/m*3 15.8 C 0 km/h
4 04-09-2020 00:15:00 15.8 C 12.65 g/m*3 15.8 C 0 km/h
5 04-09-2020 00:20:00 15.8 C 12.65 g/m*3 15.8 C 0 km/h
6 04-09-2020 00:25:00 15.8 C 12.65 g/m*3 15.8 C 0 km/h
7 04-09-2020 00:30:00 15.8 C 12.65 g/m*3 15.8 C 0 km/h
8 04-09-2020 00:35:00 15.8 C 12.65 g/m*3 15.8 C 0 km/h
9 04-09-2020 00:40:00 15.8 C 12.65 g/m*3 15.8 C 0 km/h
10 04-09-2020 00:45:00 15.9 C 12.73 g/m*3 15.9 C 0 km/h
11 04-09-2020 00:50:00 15.9 C 12.73 g/m*3 15.9 C 0 km/h
12 04-09-2020 00:55:00 15.9 C 12.73 g/m*3 15.9 C 0 km/h
13 04-09-2020 01:00:00 15.9 C 12.73 g/m*3 15.9 C 0 km/h
14 04-09-2020 01:05:00 15.8 C 12.65 g/m*3 15.8 C 0 km/h
15 04-09-2020 01:10:00 15.8 C 12.65 g/m*3 15.8 C 0 km/h
16 04-09-2020 01:15:00 15.8 C 12.65 g/m*3 15.8 C 0 km/h
17 04-09-2020 01:20:00 15.8 C 12.65 g/m*3 15.8 C 0 km/h
18 04-09-2020 01:25:00 15.7 C 12.58 g/m*3 15.7 C 0 km/h
19 04-09-2020 01:30:00 15.7 C 12.58 g/m*3 15.7 C 0 km/h
20 04-09-2020 01:35:00 15.7 C 12.58 g/m*3 15.7 C 1.6 km/h
21 04-09-2020 01:40:00 15.8 C 12.65 g/m*3 15.8 C 1.6 km/h
22 04-09-2020 01:45:00 15.8 C 12.65 g/m*3 15.8 C 0 km/h
23 04-09-2020 01:50:00 15.8 C 12.65 g/m*3 15.8 C 1.6 km/h
24 04-09-2020 01:55:00 15.8 C 12.65 g/m*3 15.8 C 0 km/h
25 04-09-2020 02:00:00 15.8 C 12.52 g/m*3 15.8 C 3.2 km/h
Sensor: Nr:Datum:Temp:Abs-Feuchte:Windchill:Wind:
Aussen-T/F 26 04-09-2020 02:05:00 15.7 C 12.44 g/m*3 15.7 C 1.6 km/h
27 04-09-2020 02:10:00 15.7 C 12.44 g/m*3 15.7 C 1.6 km/h
28 04-09-2020 02:15:00 15.7 C 12.44 g/m*3 15.7 C 0 km/h
29 04-09-2020 02:20:00 15.7 C 12.44 g/m*3 15.7 C 0 km/h
30 04-09-2020 02:25:00 15.7 C 12.44 g/m*3 15.7 C 1.6 km/h
31 04-09-2020 02:30:00 15.8 C 12.52 g/m*3 15.8 C 1.6 km/h
32 04-09-2020 02:35:00 15.8 C 12.52 g/m*3 15.8 C 1.6 km/h
33 04-09-2020 02:40:00 15.9 C 12.59 g/m*3 15.9 C 1.6 km/h
34 04-09-2020 02:45:00 16 C 12.67 g/m*3 16 C 0 km/h
35 04-09-2020 02:50:00 16.1 C 12.61 g/m*3 16.1 C 0 km/h
36 04-09-2020 02:55:00 16.2 C 12.82 g/m*3 16.2 C 0 km/h
37 04-09-2020 03:00:00 16.3 C 12.9 g/m*3 16.3 C 0 km/h
38 04-09-2020 03:05:00 16.4 C 12.98 g/m*3 16.4 C 1.6 km/h
39 04-09-2020 03:10:00 16.4 C 12.84 g/m*3 16.4 C 3.2 km/h
40 04-09-2020 03:15:00 16.4 C 12.84 g/m*3 16.4 C 4.8 km/h
41 04-09-2020 03:20:00 16.4 C 12.84 g/m*3 16.4 C 0 km/h
42 04-09-2020 03:25:00 16.4 C 12.84 g/m*3 16.4 C 0 km/h
43 04-09-2020 03:30:00 16.4 C 12.7 g/m*3 16.4 C 0 km/h
44 04-09-2020 03:35:00 16.5 C 12.78 g/m*3 16.5 C 0 km/h
45 04-09-2020 03:40:00 16.6 C 12.86 g/m*3 16.6 C 0 km/h
46 04-09-2020 03:45:00 16.6 C 12.86 g/m*3 16.6 C 0 km/h
47 04-09-2020 03:50:00 16.6 C 12.86 g/m*3 16.6 C 0 km/h
48 04-09-2020 03:55:00 16.6 C 12.86 g/m*3 16.6 C 0 km/h
49 04-09-2020 04:00:00 16.6 C 12.86 g/m*3 16.6 C 0 km/h
50 04-09-2020 04:05:00 16.6 C 12.71 g/m*3 16.6 C 0 km/h
Sensor: Nr:Datum:Temp:Abs-Feuchte:Windchill:Wind:
Aussen-T/F 51 04-09-2020 04:10:00 16.6 C 12.71 g/m*3 16.6 C 0 km/h
52 04-09-2020 04:15:00 16.6 C 12.71 g/m*3 16.6 C 0 km/h
53 04-09-2020 04:20:00 16.7 C 12.79 g/m*3 16.7 C 0 km/h
54 04-09-2020 04:25:00 16.8 C 13.01 g/m*3 16.8 C 0 km/h
55 04-09-2020 04:30:00 16.8 C 12.87 g/m*3 16.8 C 0 km/h
56 04-09-2020 04:35:00 16.8 C 12.87 g/m*3 16.8 C 0 km/h
57 04-09-2020 04:40:00 16.8 C 12.87 g/m*3 16.8 C 0 km/h
58 04-09-2020 04:45:00 16.7 C 12.79 g/m*3 16.7 C 0 km/h
59 04-09-2020 04:50:00 16.7 C 12.79 g/m*3 16.7 C 0 km/h
60 04-09-2020 04:55:00 16.7 C 12.79 g/m*3 16.7 C 0 km/h
61 04-09-2020 05:00:00 16.7 C 12.79 g/m*3 16.7 C 0 km/h
62 04-09-2020 05:05:00 16.7 C 12.79 g/m*3 16.7 C 0 km/h
63 04-09-2020 05:10:00 16.7 C 12.79 g/m*3 16.7 C 0 km/h
64 04-09-2020 05:15:00 16.7 C 12.79 g/m*3 16.7 C 0 km/h
65 04-09-2020 05:20:00 16.7 C 12.79 g/m*3 16.7 C 0 km/h
66 04-09-2020 05:25:00 16.7 C 12.79 g/m*3 16.7 C 0 km/h
67 04-09-2020 05:30:00 16.7 C 12.79 g/m*3 16.7 C 0 km/h
68 04-09-2020 05:35:00 16.7 C 12.93 g/m*3 16.7 C 0 km/h
69 04-09-2020 05:40:00 16.7 C 12.93 g/m*3 16.7 C 0 km/h
70 04-09-2020 05:45:00 16.7 C 12.93 g/m*3 16.7 C 0 km/h
71 04-09-2020 05:50:00 16.7 C 12.93 g/m*3 16.7 C 0 km/h
72 04-09-2020 05:55:00 16.7 C 12.93 g/m*3 16.7 C 0 km/h
73 04-09-2020 06:00:00 16.6 C 12.86 g/m*3 16.6 C 0 km/h
74 04-09-2020 06:05:00 16.6 C 12.71 g/m*3 16.6 C 0 km/h
75 04-09-2020 06:10:00 16.6 C 12.71 g/m*3 16.6 C 4.8 km/h
Sensor: Nr:Datum:Temp:Abs-Feuchte:Windchill:Wind:
Aussen-T/F 76 04-09-2020 06:15:00 16.5 C 12.64 g/m*3 16.5 C 4.8 km/h
77 04-09-2020 06:20:00 16.5 C 12.64 g/m*3 16.5 C 3.2 km/h
78 04-09-2020 06:25:00 16.5 C 12.64 g/m*3 16.5 C 0 km/h
79 04-09-2020 06:30:00 16.6 C 12.71 g/m*3 16.6 C 0 km/h
80 04-09-2020 06:35:00 16.6 C 12.71 g/m*3 16.6 C 3.2 km/h
81 04-09-2020 06:40:00 16.6 C 12.57 g/m*3 16.6 C 1.6 km/h
82 04-09-2020 06:45:00 16.6 C 12.71 g/m*3 16.6 C 0 km/h
83 04-09-2020 06:50:00 16.6 C 12.71 g/m*3 16.6 C 0 km/h
84 04-09-2020 06:55:00 16.7 C 12.79 g/m*3 16.7 C 3.2 km/h
85 04-09-2020 07:00:00 16.7 C 12.65 g/m*3 16.7 C 3.2 km/h
86 04-09-2020 07:05:00 16.7 C 12.65 g/m*3 16.7 C 3.2 km/h
87 04-09-2020 07:10:00 16.7 C 12.65 g/m*3 16.7 C 0 km/h
88 04-09-2020 07:15:00 16.7 C 12.65 g/m*3 16.7 C 0 km/h
89 04-09-2020 07:20:00 16.8 C 12.72 g/m*3 16.8 C 0 km/h
90 04-09-2020 07:25:00 16.8 C 12.72 g/m*3 16.8 C 0 km/h
91 04-09-2020 07:30:00 16.8 C 12.72 g/m*3 16.8 C 3.2 km/h
92 04-09-2020 07:35:00 16.8 C 12.72 g/m*3 16.8 C 0 km/h
93 04-09-2020 07:40:00 16.8 C 12.58 g/m*3 16.8 C 0 km/h
94 04-09-2020 07:45:00 16.8 C 12.72 g/m*3 16.8 C 0 km/h
95 04-09-2020 07:50:00 16.9 C 12.8 g/m*3 16.9 C 0 km/h
96 04-09-2020 07:55:00 16.9 C 12.8 g/m*3 16.9 C 0 km/h
97 04-09-2020 08:00:00 17 C 13.02 g/m*3 17 C 0 km/h
98 04-09-2020 08:05:00 17 C 13.02 g/m*3 17 C 0 km/h
99 04-09-2020 08:10:00 17.1 C 12.96 g/m*3 17.1 C 0 km/h
100 04-09-2020 08:15:00 17.1 C 12.96 g/m*3 17.1 C 3.2 km/h
Sensor: Nr:Datum:Temp:Abs-Feuchte:Windchill:Wind:
Aussen-T/F 101 04-09-2020 08:20:00 17.1 C 12.96 g/m*3 17.1 C 1.6 km/h
102 04-09-2020 08:25:00 17.1 C 12.96 g/m*3 17.1 C 0 km/h
103 04-09-2020 08:30:00 17.2 C 13.03 g/m*3 17.2 C 0 km/h
104 04-09-2020 08:35:00 17.2 C 13.03 g/m*3 17.2 C 0 km/h
105 04-09-2020 08:40:00 17.2 C 12.89 g/m*3 17.2 C 0 km/h
106 04-09-2020 08:45:00 17.3 C 12.96 g/m*3 17.3 C 0 km/h
107 04-09-2020 08:50:00 17.4 C 13.19 g/m*3 17.4 C 0 km/h
108 04-09-2020 08:55:00 17.4 C 13.04 g/m*3 17.4 C 0 km/h
109 04-09-2020 09:00:00 17.6 C 13.2 g/m*3 17.6 C 0 km/h
110 04-09-2020 09:05:00 17.7 C 13.28 g/m*3 17.7 C 0 km/h
111 04-09-2020 09:10:00 17.9 C 12.98 g/m*3 17.9 C 4.8 km/h
112 04-09-2020 09:15:00 18.1 C 13.29 g/m*3 18.1 C 1.6 km/h
113 04-09-2020 09:20:00 18.3 C 13.45 g/m*3 18.3 C 1.6 km/h
114 04-09-2020 09:25:00 18.4 C 13.37 g/m*3 18.4 C 1.6 km/h
115 04-09-2020 09:30:00 18.6 C 13.53 g/m*3 18.6 C 1.6 km/h
116 04-09-2020 09:35:00 18.6 C 13.53 g/m*3 18.6 C 0 km/h
117 04-09-2020 09:40:00 18.7 C 13.61 g/m*3 18.7 C 0 km/h
118 04-09-2020 09:45:00 18.7 C 13.61 g/m*3 18.7 C 1.6 km/h
119 04-09-2020 09:50:00 18.8 C 13.53 g/m*3 18.8 C 1.6 km/h
120 04-09-2020 09:55:00 18.8 C 13.53 g/m*3 18.8 C 0 km/h
121 04-09-2020 10:00:00 18.9 C 13.61 g/m*3 18.9 C 0 km/h
122 04-09-2020 10:05:00 18.9 C 13.61 g/m*3 18.9 C 0 km/h
123 04-09-2020 10:10:00 18.9 C 13.28 g/m*3 18.9 C 0 km/h
124 04-09-2020 10:15:00 19.1 C 13.61 g/m*3 19.1 C 0 km/h
125 04-09-2020 10:20:00 19.1 C 13.61 g/m*3 19.1 C 0 km/h
Sensor: Nr:Datum:Temp:Abs-Feuchte:Windchill:Wind:
Aussen-T/F 126 04-09-2020 10:25:00 19.2 C 13.52 g/m*3 19.2 C 0 km/h
127 04-09-2020 10:30:00 19.3 C 13.77 g/m*3 19.3 C 0 km/h
128 04-09-2020 10:35:00 19.4 C 13.85 g/m*3 19.4 C 0 km/h
129 04-09-2020 10:40:00 19.4 C 13.68 g/m*3 19.4 C 0 km/h
130 04-09-2020 10:45:00 19.6 C 13.84 g/m*3 19.6 C 0 km/h
131 04-09-2020 10:50:00 19.6 C 13.84 g/m*3 19.6 C 0 km/h
132 04-09-2020 10:55:00 19.7 C 13.92 g/m*3 19.7 C 1.6 km/h
133 04-09-2020 11:00:00 19.7 C 13.58 g/m*3 19.7 C 4.8 km/h
134 04-09-2020 11:05:00 19.7 C 13.75 g/m*3 19.7 C 1.6 km/h
135 04-09-2020 11:10:00 19.8 C 13.66 g/m*3 19.8 C 1.6 km/h
136 04-09-2020 11:15:00 19.9 C 13.92 g/m*3 19.9 C 0 km/h
137 04-09-2020 11:20:00 20.1 C 13.91 g/m*3 20.1 C 0 km/h
138 04-09-2020 11:25:00 20.3 C 14.07 g/m*3 20.3 C 0 km/h
139 04-09-2020 11:30:00 20.4 C 13.8 g/m*3 20.4 C 3.2 km/h
140 04-09-2020 11:35:00 20.6 C 13.78 g/m*3 20.6 C 0 km/h
141 04-09-2020 11:40:00 20.7 C 14.04 g/m*3 20.7 C 0 km/h
142 04-09-2020 11:45:00 20.9 C 13.66 g/m*3 20.9 C 4.8 km/h
143 04-09-2020 11:50:00 21.1 C 13.45 g/m*3 21.1 C 3.2 km/h
144 04-09-2020 11:55:00 21.3 C 13.98 g/m*3 21.3 C 3.2 km/h
145 04-09-2020 12:00:00 21.5 C 13.77 g/m*3 21.5 C 4.8 km/h
146 04-09-2020 12:05:00 21.7 C 13.54 g/m*3 21.7 C 12.9 km/h
147 04-09-2020 12:10:00 21.9 C 13.89 g/m*3 21.9 C 12.9 km/h
148 04-09-2020 12:15:00 22.1 C 13.86 g/m*3 22.1 C 9.7 km/h
149 04-09-2020 12:20:00 22.3 C 14.02 g/m*3 22.3 C 11.3 km/h
150 04-09-2020 12:25:00 22.4 C 14.1 g/m*3 22.4 C 9.7 km/h
Sensor: Nr:Datum:Temp:Abs-Feuchte:Windchill:Wind:
Aussen-T/F 151 04-09-2020 12:30:00 22.6 C 13.86 g/m*3 22.6 C 9.7 km/h
152 04-09-2020 12:35:00 22.8 C 14.02 g/m*3 22.8 C 11.3 km/h
153 04-09-2020 12:40:00 22.9 C 14.51 g/m*3 22.9 C 11.3 km/h
154 04-09-2020 12:45:00 22.9 C 14.31 g/m*3 22.9 C 9.7 km/h
155 04-09-2020 12:50:00 23.1 C 14.47 g/m*3 23.1 C 9.7 km/h
156 04-09-2020 12:55:00 23.2 C 14.34 g/m*3 23.2 C 12.9 km/h
157 04-09-2020 13:00:00 23.3 C 14.64 g/m*3 23.3 C 11.3 km/h
158 04-09-2020 13:05:00 23.6 C 14.68 g/m*3 23.6 C 14.5 km/h
159 04-09-2020 13:10:00 23.8 C 14.41 g/m*3 23.8 C 16.1 km/h
160 04-09-2020 13:15:00 23.9 C 14.49 g/m*3 23.9 C 12.9 km/h
161 04-09-2020 13:20:00 24.2 C 14.52 g/m*3 24.2 C 12.9 km/h
162 04-09-2020 13:25:00 24.4 C 14.47 g/m*3 24.4 C 12.9 km/h
163 04-09-2020 13:30:00 24.7 C 14.49 g/m*3 24.7 C 19.3 km/h
164 04-09-2020 13:35:00 24.8 C 14.57 g/m*3 24.8 C 19.3 km/h
165 04-09-2020 13:40:00 25.1 C 14.35 g/m*3 25.1 C 14.5 km/h
166 04-09-2020 13:45:00 25.3 C 14.98 g/m*3 25.3 C 11.3 km/h
167 04-09-2020 13:50:00 25.4 C 14.83 g/m*3 25.4 C 11.3 km/h
168 04-09-2020 13:55:00 25.5 C 14.91 g/m*3 25.5 C 14.5 km/h
169 04-09-2020 14:00:00 25.6 C 14.52 g/m*3 25.6 C 12.9 km/h
170 04-09-2020 14:05:00 25.7 C 14.6 g/m*3 25.7 C 14.5 km/h
171 04-09-2020 14:10:00 25.6 C 14.76 g/m*3 25.6 C 11.3 km/h
172 04-09-2020 14:15:00 25.6 C 14.52 g/m*3 25.6 C 12.9 km/h
173 04-09-2020 14:20:00 25.5 C 14.44 g/m*3 25.5 C 12.9 km/h
174 04-09-2020 14:25:00 25.5 C 14.68 g/m*3 25.5 C 12.9 km/h
175 04-09-2020 14:30:00 25.6 C 14.76 g/m*3 25.6 C 6.4 km/h
Sensor: Nr:Datum:Temp:Abs-Feuchte:Windchill:Wind:
Aussen-T/F 176 04-09-2020 14:35:00 25.7 C 14.6 g/m*3 25.7 C 9.7 km/h
177 04-09-2020 14:40:00 25.7 C 14.36 g/m*3 25.7 C 9.7 km/h
178 04-09-2020 14:45:00 25.8 C 14.93 g/m*3 25.8 C 4.8 km/h
179 04-09-2020 14:50:00 25.9 C 15.49 g/m*3 25.9 C 3.2 km/h
180 04-09-2020 14:55:00 25.9 C 14.28 g/m*3 25.9 C 11.3 km/h
181 04-09-2020 15:00:00 25.7 C 14.6 g/m*3 25.7 C 4.8 km/h
182 04-09-2020 15:05:00 25.7 C 14.6 g/m*3 25.7 C 9.7 km/h
183 04-09-2020 15:10:00 25.6 C 14.52 g/m*3 25.6 C 3.2 km/h
184 04-09-2020 15:15:00 25.6 C 14.52 g/m*3 25.6 C 6.4 km/h
185 04-09-2020 15:20:00 25.6 C 14.52 g/m*3 25.6 C 4.8 km/h
186 04-09-2020 15:25:00 25.6 C 14.52 g/m*3 25.6 C 6.4 km/h
187 04-09-2020 15:30:00 25.7 C 14.6 g/m*3 25.7 C 6.4 km/h
188 04-09-2020 15:35:00 25.8 C 14.93 g/m*3 25.8 C 3.2 km/h
189 04-09-2020 15:40:00 25.8 C 14.69 g/m*3 25.8 C 6.4 km/h
190 04-09-2020 15:45:00 25.8 C 14.93 g/m*3 25.8 C 0 km/h
191 04-09-2020 15:50:00 25.8 C 14.69 g/m*3 25.8 C 3.2 km/h
192 04-09-2020 15:55:00 25.9 C 14.53 g/m*3 25.9 C 4.8 km/h
193 04-09-2020 16:00:00 25.9 C 14.53 g/m*3 25.9 C 3.2 km/h
194 04-09-2020 16:05:00 26 C 14.61 g/m*3 26 C 6.4 km/h
195 04-09-2020 16:10:00 26.1 C 14.44 g/m*3 26.1 C 3.2 km/h
196 04-09-2020 16:15:00 26.2 C 14.52 g/m*3 26.2 C 3.2 km/h
197 04-09-2020 16:20:00 26.3 C 14.85 g/m*3 26.3 C 3.2 km/h
198 04-09-2020 16:25:00 26.2 C 14.28 g/m*3 26.2 C 4.8 km/h
199 04-09-2020 16:30:00 26.2 C 14.52 g/m*3 26.2 C 1.6 km/h
200 04-09-2020 16:35:00 26.3 C 14.61 g/m*3 26.3 C 3.2 km/h
Sensor: Nr:Datum:Temp:Abs-Feuchte:Windchill:Wind:
Aussen-T/F 201 04-09-2020 16:40:00 26.4 C 14.44 g/m*3 26.4 C 3.2 km/h
202 04-09-2020 16:45:00 26.5 C 14.77 g/m*3 26.5 C 0 km/h
203 04-09-2020 16:50:00 26.9 C 15.36 g/m*3 26.9 C 0 km/h
204 04-09-2020 16:55:00 27.1 C 14.49 g/m*3 27.1 C 3.2 km/h
205 04-09-2020 17:00:00 27.3 C 14.91 g/m*3 27.3 C 0 km/h
206 04-09-2020 17:05:00 27.6 C 14.63 g/m*3 27.6 C 1.6 km/h
207 04-09-2020 17:10:00 28.1 C 15.04 g/m*3 28.1 C 4.8 km/h
208 04-09-2020 17:15:00 28.4 C 14.73 g/m*3 28.4 C 6.4 km/h
209 04-09-2020 17:20:00 28.8 C 14.77 g/m*3 28.8 C 6.4 km/h
210 04-09-2020 17:25:00 28.8 C 14.77 g/m*3 28.8 C 8.1 km/h
211 04-09-2020 17:30:00 28.7 C 15.26 g/m*3 28.7 C 0 km/h
212 04-09-2020 17:35:00 28.6 C 16.02 g/m*3 28.6 C 1.6 km/h
213 04-09-2020 17:40:00 28.3 C 16.59 g/m*3 28.3 C 0 km/h
214 04-09-2020 17:45:00 28.1 C 15.59 g/m*3 28.1 C 0 km/h
215 04-09-2020 17:50:00 27.8 C 16.41 g/m*3 27.8 C 0 km/h
216 04-09-2020 17:55:00 27.4 C 15.79 g/m*3 27.4 C 0 km/h
217 04-09-2020 18:00:00 27.1 C 16.04 g/m*3 27.1 C 0 km/h
218 04-09-2020 18:05:00 26.7 C 15.44 g/m*3 26.7 C 9.7 km/h
219 04-09-2020 18:10:00 26.2 C 15.51 g/m*3 26.2 C 8.1 km/h
220 04-09-2020 18:15:00 25.8 C 15.41 g/m*3 25.8 C 9.7 km/h
221 04-09-2020 18:20:00 25.4 C 15.54 g/m*3 25.4 C 9.7 km/h
222 04-09-2020 18:25:00 25.4 C 15.77 g/m*3 25.4 C 8.1 km/h
223 04-09-2020 18:30:00 25.4 C 16.01 g/m*3 25.4 C 6.4 km/h
224 04-09-2020 18:35:00 25.4 C 16.01 g/m*3 25.4 C 11.3 km/h
225 04-09-2020 18:40:00 25.2 C 15.83 g/m*3 25.2 C 6.4 km/h
Sensor: Nr:Datum:Temp:Abs-Feuchte:Windchill:Wind:
Aussen-T/F 226 04-09-2020 18:45:00 24.9 C 15.79 g/m*3 24.9 C 8.1 km/h
227 04-09-2020 18:50:00 24.6 C 15.75 g/m*3 24.6 C 8.1 km/h
228 04-09-2020 18:55:00 24.4 C 16.02 g/m*3 24.4 C 8.1 km/h
229 04-09-2020 19:00:00 24.2 C 15.84 g/m*3 24.2 C 6.4 km/h
230 04-09-2020 19:05:00 24 C 15.88 g/m*3 24 C 3.2 km/h
231 04-09-2020 19:10:00 23.9 C 15.79 g/m*3 23.9 C 3.2 km/h
232 04-09-2020 19:15:00 23.8 C 15.92 g/m*3 23.8 C 3.2 km/h
233 04-09-2020 19:20:00 23.6 C 15.95 g/m*3 23.6 C 4.8 km/h
234 04-09-2020 19:25:00 23.4 C 15.77 g/m*3 23.4 C 4.8 km/h
235 04-09-2020 19:30:00 23.3 C 15.68 g/m*3 23.3 C 1.6 km/h
236 04-09-2020 19:35:00 23.2 C 15.8 g/m*3 23.2 C 4.8 km/h
237 04-09-2020 19:40:00 23.1 C 15.71 g/m*3 23.1 C 4.8 km/h
238 04-09-2020 19:45:00 22.9 C 15.74 g/m*3 22.9 C 6.4 km/h
239 04-09-2020 19:50:00 22.8 C 15.85 g/m*3 22.8 C 4.8 km/h
240 04-09-2020 19:55:00 22.7 C 15.96 g/m*3 22.7 C 4.8 km/h
241 04-09-2020 20:00:00 22.5 C 15.78 g/m*3 22.5 C 4.8 km/h
242 04-09-2020 20:05:00 22.3 C 15.8 g/m*3 22.3 C 8.1 km/h
243 04-09-2020 20:10:00 22.2 C 15.71 g/m*3 22.2 C 0 km/h
244 04-09-2020 20:15:00 22 C 15.53 g/m*3 22 C 0 km/h
245 04-09-2020 20:20:00 21.7 C 15.45 g/m*3 21.7 C 0 km/h
246 04-09-2020 20:25:00 21.4 C 15.37 g/m*3 21.4 C 0 km/h
247 04-09-2020 20:30:00 21.2 C 15.2 g/m*3 21.2 C 0 km/h
248 04-09-2020 20:35:00 20.9 C 15.12 g/m*3 20.9 C 0 km/h
249 04-09-2020 20:40:00 20.7 C 15.12 g/m*3 20.7 C 0 km/h
250 04-09-2020 20:45:00 20.4 C 15.04 g/m*3 20.4 C 0 km/h
Sensor: Nr:Datum:Temp:Abs-Feuchte:Windchill:Wind:
Aussen-T/F 251 04-09-2020 20:50:00 20.3 C 15.3 g/m*3 20.3 C 4.8 km/h
252 04-09-2020 20:55:00 20.3 C 15.3 g/m*3 20.3 C 0 km/h
253 04-09-2020 21:00:00 20.2 C 15.21 g/m*3 20.2 C 1.6 km/h
254 04-09-2020 21:05:00 20.1 C 15.3 g/m*3 20.1 C 4.8 km/h
255 04-09-2020 21:10:00 20.1 C 15.3 g/m*3 20.1 C 3.2 km/h
256 04-09-2020 21:15:00 20.1 C 15.3 g/m*3 20.1 C 3.2 km/h
257 04-09-2020 21:20:00 20.1 C 15.12 g/m*3 20.1 C 3.2 km/h
258 04-09-2020 21:25:00 20.1 C 15.12 g/m*3 20.1 C 3.2 km/h
259 04-09-2020 21:30:00 20.1 C 15.12 g/m*3 20.1 C 1.6 km/h
260 04-09-2020 21:35:00 20.1 C 15.12 g/m*3 20.1 C 1.6 km/h
261 04-09-2020 21:40:00 20.1 C 15.12 g/m*3 20.1 C 1.6 km/h
262 04-09-2020 21:45:00 20 C 15.04 g/m*3 20 C 1.6 km/h
263 04-09-2020 21:50:00 20 C 15.04 g/m*3 20 C 0 km/h
264 04-09-2020 21:55:00 19.9 C 14.95 g/m*3 19.9 C 0 km/h
265 04-09-2020 22:00:00 19.9 C 14.95 g/m*3 19.9 C 0 km/h
266 04-09-2020 22:05:00 19.9 C 14.95 g/m*3 19.9 C 1.6 km/h
267 04-09-2020 22:10:00 19.8 C 14.86 g/m*3 19.8 C 1.6 km/h
268 04-09-2020 22:15:00 19.8 C 14.86 g/m*3 19.8 C 1.6 km/h
269 04-09-2020 22:20:00 19.8 C 14.86 g/m*3 19.8 C 1.6 km/h
270 04-09-2020 22:25:00 19.7 C 14.77 g/m*3 19.7 C 0 km/h
271 04-09-2020 22:30:00 19.6 C 14.69 g/m*3 19.6 C 0 km/h
272 04-09-2020 22:35:00 19.4 C 14.35 g/m*3 19.4 C 0 km/h
273 04-09-2020 22:40:00 19.2 C 14.35 g/m*3 19.2 C 0 km/h
274 04-09-2020 22:45:00 19.1 C 14.26 g/m*3 19.1 C 0 km/h
275 04-09-2020 22:50:00 19 C 14.34 g/m*3 19 C 0 km/h
Sensor: Nr:Datum:Temp:Abs-Feuchte:Windchill:Wind:
Aussen-T/F 276 04-09-2020 22:55:00 18.9 C 14.42 g/m*3 18.9 C 0 km/h
277 04-09-2020 23:00:00 18.9 C 14.42 g/m*3 18.9 C 0 km/h
278 04-09-2020 23:05:00 18.8 C 14.33 g/m*3 18.8 C 0 km/h
279 04-09-2020 23:10:00 18.8 C 14.49 g/m*3 18.8 C 0 km/h
280 04-09-2020 23:15:00 18.8 C 14.49 g/m*3 18.8 C 0 km/h
281 04-09-2020 23:20:00 18.8 C 14.49 g/m*3 18.8 C 0 km/h
282 04-09-2020 23:25:00 18.8 C 14.49 g/m*3 18.8 C 0 km/h
283 04-09-2020 23:30:00 18.7 C 14.41 g/m*3 18.7 C 0 km/h
284 04-09-2020 23:35:00 18.7 C 14.57 g/m*3 18.7 C 0 km/h
285 04-09-2020 23:40:00 18.7 C 14.57 g/m*3 18.7 C 0 km/h
286 04-09-2020 23:45:00 18.6 C 14.48 g/m*3 18.6 C 0 km/h
287 04-09-2020 23:50:00 18.6 C 14.48 g/m*3 18.6 C 0 km/h
288 04-09-2020 23:55:00 18.5 C 14.4 g/m*3 18.5 C 0 km/h

Legende:
   Min
   Max


Maximal/Minimal-Werte vom 14.04.2020 - 16.05.2020

Sensor Min Max Avg
Temp
(Aussen-T/F)
-0.1 °C
15-04-2020  06:55:00
26.2 °C
17-04-2020  18:05:00
11.98 °C

Die Daten stammen von einer Davis Vantage Pro 2 Wetter-Station und werden unter Linux mit der Software wview2wettercgi und aufbereitet. Alle Angaben erfolgen ohne Gewähr für ihre Vollständigkeit oder Richtigkeit.
Kontakt: Rainer Krienke krienke@uni-koblenz.de . Meine Webseiten an der Uni Koblenz oder privat.
Version: $Revision: 0.78 $